Time;durP1;ratioP1;P1;durP2;ratioP2;P2;SDS_P1;SDS_P2;PMS_P1;PMS_P2;Temp;Humidity;BMP_temperature;BMP_pressure;BME280_temperature;BME280_humidity;BME280_pressure;Samples;Min_cycle;Max_cycle;Signal;HPM_P1;HPM_P2
2022/03/05 00:02:00;;;;;;;8.50;5.57;;;8.30;71.20;;;;;;12908754;23;20502;-81
2022/03/05 00:07:03;;;;;;;13.03;6.23;;;7.50;90.80;;;;;;12916663;23;20205;-81
2022/03/05 00:12:06;;;;;;;8.90;5.97;;;5.50;91.90;;;;;;12917160;23;20274;-81
2022/03/05 00:17:08;;;;;;;12.47;6.80;;;5.60;93.50;;;;;;12920355;23;20224;-81
2022/03/05 00:22:11;;;;;;;9.07;5.57;;;5.70;88.30;;;;;;12893656;23;20174;-81
2022/03/05 00:27:13;;;;;;;8.30;5.53;;;6.50;94.70;;;;;;12892831;23;20296;-81
2022/03/05 00:32:16;;;;;;;8.07;5.53;;;6.80;93.90;;;;;;12892635;23;20174;-80
2022/03/05 00:37:19;;;;;;;7.53;5.87;;;6.20;95.20;;;;;;12919642;23;20727;-81
2022/03/05 00:42:21;;;;;;;8.67;5.60;;;7.00;92.80;;;;;;12919557;23;20228;-80
2022/03/05 00:47:24;;;;;;;10.73;5.37;;;6.50;99.90;;;;;;12892209;23;20269;-81
2022/03/05 00:52:26;;;;;;;10.20;6.00;;;7.40;93.90;;;;;;12893802;23;20170;-80
2022/03/05 00:57:29;;;;;;;11.40;7.73;;;8.40;89.10;;;;;;12919936;23;20498;-81
2022/03/05 01:02:32;;;;;;;8.73;5.63;;;8.30;88.40;;;;;;12937080;23;20171;-81
2022/03/05 01:07:34;;;;;;;6.17;4.80;;;7.60;88.60;;;;;;12893366;23;20495;-81
2022/03/05 01:12:37;;;;;;;7.67;4.73;;;7.10;91.40;;;;;;12893572;23;20500;-81
2022/03/05 01:17:41;;;;;;;9.47;5.20;;;5.90;92.00;;;;;;12893030;23;20166;-81
2022/03/05 01:22:43;;;;;;;8.77;5.23;;;5.70;92.00;;;;;;12900632;23;20225;-81
2022/03/05 01:27:46;;;;;;;12.27;5.57;;;4.40;91.30;;;;;;12866100;23;20198;-80
2022/03/05 01:32:48;;;;;;;9.13;5.47;;;3.90;86.30;;;;;;12893187;23;20493;-80
2022/03/05 01:37:51;;;;;;;10.97;5.20;;;5.60;99.90;;;;;;12867460;23;20686;-80
2022/03/05 01:42:53;;;;;;;7.43;4.87;;;6.90;92.30;;;;;;12919296;23;20170;-80
2022/03/05 01:47:56;;;;;;;6.73;4.43;;;7.20;96.60;;;;;;12919198;23;20248;-80
2022/03/05 01:52:58;;;;;;;7.53;4.90;;;6.70;96.90;;;;;;12899337;23;20228;-80
2022/03/05 01:58:01;;;;;;;10.13;4.67;;;7.40;93.90;;;;;;12918587;23;20166;-81
2022/03/05 02:03:03;;;;;;;7.27;4.90;;;8.10;89.60;;;;;;12918732;23;20218;-81
2022/03/05 02:08:06;;;;;;;8.83;4.87;;;8.40;90.80;;;;;;12917490;23;20726;-81
2022/03/05 02:13:08;;;;;;;6.73;4.37;;;8.20;90.20;;;;;;12918421;23;20195;-80
2022/03/05 02:18:11;;;;;;;6.97;4.67;;;9.10;86.80;;;;;;12917893;23;20229;-81
2022/03/05 02:23:13;;;;;;;6.27;4.20;;;9.20;89.50;;;;;;12890661;23;20188;-81
2022/03/05 02:28:16;;;;;;;10.63;4.87;;;8.90;83.60;;;;;;12890731;23;20192;-81
2022/03/05 02:33:19;;;;;;;9.00;4.37;;;9.30;86.90;;;;;;12917742;23;20197;-81
2022/03/05 02:38:23;;;;;;;7.60;4.47;;;9.50;83.40;;;;;;12864408;23;20714;-81
2022/03/05 02:43:26;;;;;;;6.80;4.30;;;8.60;87.20;;;;;;12891941;23;20552;-81
2022/03/05 02:48:29;;;;;;;7.00;4.17;;;8.20;90.10;;;;;;12917919;23;20192;-80
2022/03/05 02:53:32;;;;;;;4.07;3.30;;;9.20;88.20;;;;;;12916892;23;20168;-80
2022/03/05 02:58:34;;;;;;;10.07;3.93;;;9.10;87.20;;;;;;12916570;23;20486;-81
2022/03/05 03:03:37;;;;;;;6.07;4.47;;;8.40;69.90;;;;;;12890504;23;20230;-80
2022/03/05 03:08:39;;;;;;;6.80;3.63;;;9.20;85.30;;;;;;12889118;23;20883;-80
2022/03/05 03:13:42;;;;;;;7.60;3.70;;;9.80;83.60;;;;;;12890110;23;20498;-80
2022/03/05 03:18:44;;;;;;;5.70;3.73;;;10.20;81.50;;;;;;12890516;23;20612;-80
2022/03/05 03:23:47;;;;;;;7.63;3.50;;;10.50;82.50;;;;;;12916057;23;20177;-80
2022/03/05 03:28:50;;;;;;;7.87;4.07;;;10.70;81.50;;;;;;12863769;23;20196;-80
2022/03/05 03:33:52;;;;;;;5.30;3.53;;;10.80;80.50;;;;;;12863718;23;20200;-80
2022/03/05 03:38:55;;;;;;;5.13;3.43;;;10.80;80.10;;;;;;12889135;23;20182;-80
2022/03/05 03:43:57;;;;;;;4.03;3.17;;;10.80;80.00;;;;;;12916570;23;20169;-80
2022/03/05 03:49:00;;;;;;;5.23;3.40;;;10.90;79.70;;;;;;12918599;23;20261;-80
2022/03/05 03:54:02;;;;;;;5.63;3.90;;;10.50;79.60;;;;;;12893792;23;20171;-80
2022/03/05 03:59:05;;;;;;;8.27;3.67;;;10.70;79.50;;;;;;12912635;23;20617;-80
2022/03/05 04:04:07;;;;;;;7.57;4.40;;;9.90;69.60;;;;;;12894049;23;20174;-80
2022/03/05 04:09:10;;;;;;;5.43;3.87;;;7.70;71.70;;;;;;12867869;23;20252;-80
2022/03/05 04:14:13;;;;;;;6.37;4.23;;;8.40;87.80;;;;;;12920416;23;20160;-80
2022/03/05 04:19:15;;;;;;;6.33;3.73;;;5.90;83.40;;;;;;12937131;23;20166;-80
2022/03/05 04:24:18;;;;;;;6.03;3.17;;;6.70;94.20;;;;;;12867470;23;20533;-80
2022/03/05 04:29:20;;;;;;;4.97;3.33;;;9.10;90.00;;;;;;12910750;23;20193;-80
2022/03/05 04:34:23;;;;;;;3.77;3.10;;;10.00;82.80;;;;;;12920689;23;20218;-80
2022/03/05 04:39:25;;;;;;;4.00;3.17;;;10.60;81.70;;;;;;12919776;23;20177;-80
2022/03/05 04:44:28;;;;;;;3.97;3.27;;;10.90;79.90;;;;;;12868036;23;20174;-80
2022/03/05 04:49:30;;;;;;;4.27;3.20;;;11.00;79.40;;;;;;12891480;23;20197;-80
2022/03/05 04:54:33;;;;;;;5.30;3.83;;;11.20;78.10;;;;;;12920526;23;20170;-79
2022/03/05 04:59:35;;;;;;;5.90;3.30;;;11.10;78.20;;;;;;12936276;23;20174;-79
2022/03/05 05:04:38;;;;;;;5.57;3.13;;;10.90;76.60;;;;;;12919382;23;20563;-79
2022/03/05 05:09:41;;;;;;;4.27;2.83;;;10.90;78.50;;;;;;12918907;23;20216;-80
2022/03/05 05:14:44;;;;;;;4.83;3.07;;;10.90;76.80;;;;;;12891852;23;20629;-80
2022/03/05 05:19:46;;;;;;;5.73;3.70;;;10.80;76.50;;;;;;12891415;23;20179;-79
2022/03/05 05:24:49;;;;;;;5.93;3.17;;;10.20;79.90;;;;;;12892623;23;20176;-80
2022/03/05 05:29:51;;;;;;;5.67;3.83;;;10.80;78.40;;;;;;12892852;23;20188;-80
2022/03/05 05:34:54;;;;;;;6.43;3.33;;;10.80;78.40;;;;;;12891497;23;20216;-80
2022/03/05 05:39:57;;;;;;;4.37;2.83;;;10.90;76.40;;;;;;12918533;23;20572;-80
2022/03/05 05:44:59;;;;;;;4.67;3.10;;;10.80;77.60;;;;;;12891040;23;20664;-80
2022/03/05 05:50:04;;;;;;;3.07;2.40;;;10.80;77.80;;;;;;12890371;23;20190;-79
2022/03/05 05:55:08;;;;;;;6.97;3.37;;;10.90;77.30;;;;;;12891283;23;20184;-80
2022/03/05 06:00:11;;;;;;;6.30;3.63;;;10.70;76.50;;;;;;12918089;23;20174;-79
2022/03/05 06:05:14;;;;;;;3.97;2.70;;;10.70;76.40;;;;;;12938863;23;20232;-79
2022/03/05 06:10:16;;;;;;;5.70;3.43;;;10.80;77.50;;;;;;12934882;23;20224;-79
2022/03/05 06:15:19;;;;;;;7.40;3.73;;;11.00;75.90;;;;;;12917832;23;20166;-79
2022/03/05 06:20:22;;;;;;;5.87;3.07;;;10.70;72.70;;;;;;12917921;23;20174;-79
2022/03/05 06:25:24;;;;;;;4.83;2.80;;;10.60;78.00;;;;;;12891248;23;20223;-79
2022/03/05 06:30:27;;;;;;;3.80;2.57;;;11.20;76.30;;;;;;12917479;23;20240;-80
2022/03/05 06:35:29;;;;;;;4.47;2.93;;;11.40;75.30;;;;;;12890808;23;20186;-80
2022/03/05 06:40:32;;;;;;;5.80;3.03;;;11.40;74.30;;;;;;12865959;23;20177;-80
2022/03/05 06:45:35;;;;;;;5.33;3.50;;;11.60;74.30;;;;;;12890057;23;20174;-80
2022/03/05 06:50:38;;;;;;;4.80;3.30;;;11.50;73.70;;;;;;12917093;23;20196;-79
2022/03/05 06:55:41;;;;;;;5.47;3.27;;;10.90;75.90;;;;;;12889136;23;20217;-79
2022/03/05 07:00:43;;;;;;;5.77;3.47;;;10.70;75.50;;;;;;12917095;23;20489;-80
2022/03/05 07:05:47;;;;;;;3.53;2.63;;;10.30;72.20;;;;;;12865501;23;20696;-80
2022/03/05 07:10:49;;;;;;;3.60;2.73;;;9.70;78.00;;;;;;12916742;23;20193;-80
2022/03/05 07:15:52;;;;;;;5.47;3.73;;;10.30;76.40;;;;;;12889421;23;20300;-80
2022/03/05 07:20:57;;;;;;;8.73;4.80;;;9.60;78.90;;;;;;12889540;23;20177;-80
2022/03/05 07:25:59;;;;;;;5.30;3.23;;;7.70;67.10;;;;;;12889121;23;20518;-80
2022/03/05 07:31:02;;;;;;;9.53;4.70;;;8.00;86.10;;;;;;12916267;23;20239;-80
2022/03/05 07:36:05;;;;;;;15.87;5.70;;;6.70;75.80;;;;;;12916308;23;20214;-80
2022/03/05 07:41:07;;;;;;;4.60;3.07;;;5.00;79.20;;;;;;12890134;23;20229;-81
2022/03/05 07:46:10;;;;;;;4.73;3.10;;;6.60;90.60;;;;;;12888472;23;20564;-80
2022/03/05 07:51:12;;;;;;;10.13;6.23;;;9.00;85.60;;;;;;12914935;23;20188;-80
2022/03/05 07:56:15;;;;;;;12.43;6.57;;;5.80;83.60;;;;;;12916695;23;20159;-80
2022/03/05 08:01:18;;;;;;;3.97;2.80;;;6.10;77.60;;;;;;12934400;23;20567;-80
2022/03/05 08:06:20;;;;;;;4.27;2.93;;;7.00;93.00;;;;;;12905272;23;20175;-80
2022/03/05 08:11:23;;;;;;;9.33;4.47;;;5.30;92.60;;;;;;12890369;23;20212;-79
2022/03/05 08:16:25;;;;;;;7.87;5.07;;;4.90;93.50;;;;;;12916590;23;20502;-79
2022/03/05 08:21:28;;;;;;;10.63;4.50;;;6.90;96.40;;;;;;12916691;23;20179;-80
2022/03/05 08:26:31;;;;;;;5.70;3.60;;;8.90;91.10;;;;;;12888264;23;20179;-80
2022/03/05 08:31:33;;;;;;;4.97;3.50;;;7.70;83.40;;;;;;12889916;23;20191;-80
2022/03/05 08:36:36;;;;;;;4.43;3.30;;;8.40;81.20;;;;;;12918802;23;20191;-80
2022/03/05 08:41:38;;;;;;;15.07;7.40;;;10.40;83.10;;;;;;12893169;23;20505;-79
2022/03/05 08:46:41;;;;;;;7.23;4.27;;;8.90;65.90;;;;;;12920222;23;20242;-79
2022/03/05 08:51:44;;;;;;;13.60;4.37;;;9.90;78.00;;;;;;12893388;23;20211;-79
2022/03/05 08:56:48;;;;;;;5.73;3.13;;;11.10;79.50;;;;;;12909962;23;20165;-80
2022/03/05 09:01:50;;;;;;;7.43;2.97;;;11.90;75.70;;;;;;12909607;23;20200;-79
2022/03/05 09:06:53;;;;;;;6.27;4.40;;;12.20;73.90;;;;;;12892325;23;20184;-79
2022/03/05 09:11:56;;;;;;;14.30;5.63;;;9.60;73.30;;;;;;12919967;23;20191;-80
2022/03/05 09:16:58;;;;;;;11.90;7.90;;;8.10;81.80;;;;;;12893118;23;20168;-80
2022/03/05 09:22:01;;;;;;;4.00;3.20;;;7.10;68.10;;;;;;12920839;23;20196;-79
2022/03/05 09:27:05;;;;;;;6.73;4.03;;;9.40;83.20;;;;;;12919022;23;20171;-81
2022/03/05 09:32:08;;;;;;;7.23;3.57;;;10.20;75.90;;;;;;12919312;23;20211;-79
2022/03/05 09:37:11;;;;;;;9.90;5.83;;;10.70;79.40;;;;;;12892789;23;20187;-81
2022/03/05 09:42:14;;;;;;;11.80;7.33;;;8.70;77.50;;;;;;12937603;23;20228;-80
2022/03/05 09:47:16;;;;;;;4.30;2.97;;;6.90;65.70;;;;;;12892323;23;20170;-80
2022/03/05 09:52:19;;;;;;;5.80;3.40;;;9.20;85.70;;;;;;12919306;23;20182;-80
2022/03/05 09:57:22;;;;;;;5.97;3.73;;;10.70;78.80;;;;;;12919183;23;20230;-79
2022/03/05 10:02:24;;;;;;;9.47;6.07;;;12.00;74.50;;;;;;12891688;23;20711;-80
2022/03/05 10:07:29;;;;;;;9.23;5.80;;;10.50;55.40;;;;;;12918493;23;20184;-79
2022/03/05 10:12:34;;;;;;;9.17;5.17;;;9.20;60.90;;;;;;12918205;23;20187;-79
2022/03/05 10:17:52;;;;;;;9.07;5.13;;;7.40;69.70;;;;;;12919133;23;20163;-80
2022/03/05 10:23:01;;;;;;;8.40;4.53;;;5.50;98.20;;;;;;12924462;23;20167;-81
2022/03/05 10:28:05;;;;;;;11.00;3.80;;;10.80;77.40;;;;;;12889732;23;20174;-81
2022/03/05 10:33:38;;;;;;;6.47;3.33;;;7.80;56.40;;;;;;12889977;23;20247;-80
2022/03/05 10:38:48;;;;;;;5.00;3.10;;;9.50;56.00;;;;;;12788026;23;20179;-81
2022/03/05 10:44:07;;;;;;;6.20;3.30;;;9.30;53.70;;;;;;12790312;23;20572;-80
2022/03/05 10:49:22;;;;;;;6.33;3.43;;;8.10;53.50;;;;;;12807017;23;20242;-81
2022/03/05 10:54:37;;;;;;;5.63;2.40;;;8.80;52.90;;;;;;12795917;23;20172;-81
2022/03/05 10:59:45;;;;;;;3.90;3.23;;;9.10;52.30;;;;;;12790283;23;20542;-80
2022/03/05 11:04:49;;;;;;;6.53;3.67;;;8.50;58.70;;;;;;12789533;23;20206;-80
2022/03/05 11:09:54;;;;;;;4.97;3.83;;;9.70;53.70;;;;;;12792062;23;20534;-80
2022/03/05 11:14:57;;;;;;;6.43;2.87;;;9.00;50.70;;;;;;12789153;23;20228;-82
2022/03/05 11:20:01;;;;;;;13.10;6.53;;;8.20;55.40;;;;;;12791007;23;20702;-82
2022/03/05 11:25:04;;;;;;;16.73;7.67;;;7.90;55.20;;;;;;12792028;23;20172;-81
2022/03/05 11:30:08;;;;;;;3.60;3.30;;;8.70;54.50;;;;;;12790796;23;20554;-82
2022/03/05 11:35:30;;;;;;;5.60;3.47;;;7.40;57.80;;;;;;12827544;23;20194;-82
2022/03/05 11:40:42;;;;;;;4.90;3.70;;;9.20;56.50;;;;;;12934134;23;20170;-82
2022/03/05 11:45:49;;;;;;;6.63;2.43;;;10.00;53.70;;;;;;12916933;23;20193;-82
2022/03/05 11:51:12;;;;;;;3.23;2.90;;;5.50;56.40;;;;;;12888765;23;20246;-82
2022/03/05 11:56:25;;;;;;;4.23;2.40;;;7.00;57.10;;;;;;12933593;23;20474;-81
2022/03/05 12:01:44;;;;;;;6.57;3.80;;;9.20;56.60;;;;;;12933831;23;20213;-82
2022/03/05 12:06:49;;;;;;;3.93;2.97;;;8.90;50.50;;;;;;12931951;23;20170;-81
2022/03/05 12:11:55;;;;;;;4.20;2.90;;;9.20;50.00;;;;;;12912589;23;20190;-82
2022/03/05 12:17:08;;;;;;;3.80;3.10;;;10.20;49.90;;;;;;12920426;23;20221;-82
2022/03/05 12:22:14;;;;;;;5.23;3.33;;;8.70;49.70;;;;;;12933392;23;20225;-82
2022/03/05 12:27:18;;;;;;;4.93;3.30;;;7.70;52.20;;;;;;12937722;23;20166;-82
2022/03/05 12:32:29;;;;;;;5.73;4.53;;;8.90;51.10;;;;;;12919917;23;20190;-82
2022/03/05 12:37:32;;;;;;;5.50;4.47;;;8.60;58.00;;;;;;12924316;23;20661;-81
2022/03/05 12:42:42;;;;;;;6.40;4.63;;;8.00;55.50;;;;;;12893433;23;20561;-81
2022/03/05 12:47:46;;;;;;;9.73;4.30;;;8.50;54.40;;;;;;12935315;23;20786;-81
2022/03/05 12:52:54;;;;;;;7.30;4.90;;;10.80;54.00;;;;;;12919643;23;20614;-81
2022/03/05 12:58:10;;;;;;;7.27;4.17;;;8.70;50.00;;;;;;12936403;23;20162;-81
2022/03/05 13:03:13;;;;;;;6.40;5.03;;;10.60;49.00;;;;;;12891903;23;20177;-81
2022/03/05 13:08:20;;;;;;;6.77;4.13;;;9.40;48.40;;;;;;12892820;23;20174;-81
2022/03/05 13:13:31;;;;;;;58.67;22.13;;;9.90;49.70;;;;;;12918886;23;20240;-81
2022/03/05 13:18:34;;;;;;;27.23;10.90;;;10.30;48.10;;;;;;12892464;23;20547;-81
2022/03/05 13:23:40;;;;;;;6.37;5.27;;;9.90;48.80;;;;;;12917149;23;20224;-80
2022/03/05 13:28:43;;;;;;;20.33;6.80;;;7.30;48.00;;;;;;12937178;23;20174;-79
2022/03/05 13:33:51;;;;;;;14.50;7.07;;;7.70;62.40;;;;;;12891548;23;20187;-81
2022/03/05 13:39:06;;;;;;;8.33;5.57;;;8.20;58.50;;;;;;12899581;23;20170;-80
2022/03/05 13:44:39;;;;;;;17.63;5.63;;;7.70;51.70;;;;;;12866022;23;20174;-80
2022/03/05 13:49:43;;;;;;;26.20;10.23;;;8.70;59.10;;;;;;12936799;23;20561;-80
2022/03/05 13:54:50;;;;;;;11.23;6.67;;;7.30;57.40;;;;;;12891028;23;20171;-80
2022/03/05 13:59:53;;;;;;;10.13;5.70;;;5.70;58.10;;;;;;12933349;23;20236;-79
2022/03/05 14:05:00;;;;;;;8.97;6.60;;;5.40;64.90;;;;;;12886053;23;20420;-80
2022/03/05 14:10:03;;;;;;;15.07;6.30;;;5.10;57.80;;;;;;12912786;23;20186;-80
2022/03/05 14:15:08;;;;;;;56.97;23.67;;;4.90;69.10;;;;;;12904457;23;20224;-80
2022/03/05 14:20:19;;;;;;;54.87;23.23;;;5.80;55.60;;;;;;12931085;23;20220;-80
2022/03/05 14:25:23;;;;;;;11.83;6.23;;;6.70;55.40;;;;;;12913727;23;20204;-79
2022/03/05 14:30:28;;;;;;;9.33;6.10;;;4.50;59.30;;;;;;12930971;23;20244;-80
2022/03/05 14:35:31;;;;;;;10.33;6.07;;;5.00;60.60;;;;;;12885646;23;20514;-80
2022/03/05 14:40:36;;;;;;;38.60;15.43;;;5.90;61.70;;;;;;12884470;23;20601;-80
2022/03/05 14:45:39;;;;;;;41.27;18.70;;;6.10;54.40;;;;;;12930726;23;20170;-80
2022/03/05 14:50:43;;;;;;;10.80;6.80;;;5.40;57.50;;;;;;12913230;23;20197;-80
2022/03/05 14:55:46;;;;;;;13.70;7.77;;;4.50;58.60;;;;;;12902792;23;20166;-80
2022/03/05 15:00:48;;;;;;;15.20;6.40;;;4.20;61.00;;;;;;12910929;23;20171;-80
2022/03/05 15:05:51;;;;;;;12.50;8.03;;;5.40;61.60;;;;;;12915050;23;20240;-80
2022/03/05 15:10:54;;;;;;;11.43;6.60;;;6.80;61.10;;;;;;12888547;23;20247;-80
2022/03/05 15:15:57;;;;;;;7.53;4.07;;;8.20;62.80;;;;;;12888351;23;20573;-80
2022/03/05 15:20:59;;;;;;;12.97;6.20;;;9.00;62.80;;;;;;12863723;23;20224;-80
2022/03/05 15:26:02;;;;;;;12.77;7.10;;;9.40;60.50;;;;;;12888720;23;20182;-79
2022/03/05 15:31:09;;;;;;;8.83;5.80;;;7.40;57.60;;;;;;12889779;23;20187;-80
2022/03/05 15:36:11;;;;;;;14.53;8.33;;;7.70;59.80;;;;;;12920685;23;20187;-80
2022/03/05 15:41:14;;;;;;;12.33;7.17;;;7.20;57.40;;;;;;12890027;23;20170;-80
2022/03/05 15:46:17;;;;;;;9.00;5.37;;;7.50;62.90;;;;;;12862408;23;20178;-80
2022/03/05 15:51:20;;;;;;;6.40;4.30;;;7.10;63.70;;;;;;12915624;23;20183;-81
2022/03/05 15:56:22;;;;;;;12.03;8.27;;;7.80;64.80;;;;;;12863859;23;20175;-80
2022/03/05 16:01:25;;;;;;;17.80;10.37;;;9.50;56.40;;;;;;12935177;23;20197;-80
2022/03/05 16:06:29;;;;;;;10.37;6.97;;;9.30;51.60;;;;;;12915557;23;20183;-80
2022/03/05 16:11:32;;;;;;;8.80;7.03;;;10.20;63.10;;;;;;12888275;23;20204;-79
2022/03/05 16:16:35;;;;;;;32.87;16.63;;;9.30;56.50;;;;;;12916565;23;20497;-79
2022/03/05 16:21:37;;;;;;;14.07;8.70;;;6.40;53.50;;;;;;12916270;23;20175;-80
2022/03/05 16:26:40;;;;;;;17.07;10.43;;;7.10;60.10;;;;;;12915235;23;20193;-81
2022/03/05 16:31:43;;;;;;;13.80;8.37;;;7.40;55.00;;;;;;12858196;22;20206;-80
2022/03/05 16:36:45;;;;;;;16.90;9.87;;;7.40;61.80;;;;;;12906060;23;20480;-81
2022/03/05 16:41:48;;;;;;;34.87;17.10;;;8.00;55.80;;;;;;12906860;23;20225;-81
2022/03/05 16:46:51;;;;;;;17.67;10.27;;;5.60;55.90;;;;;;12889364;23;20170;-80
2022/03/05 16:51:54;;;;;;;15.50;7.37;;;4.60;57.00;;;;;;12915705;23;20187;-80
2022/03/05 16:56:56;;;;;;;8.77;6.53;;;5.20;60.80;;;;;;12917566;23;20162;-81
2022/03/05 17:01:59;;;;;;;7.57;6.50;;;3.40;60.20;;;;;;12919189;23;20217;-80
2022/03/05 17:07:04;;;;;;;22.60;11.50;;;3.00;63.30;;;;;;12887085;23;20236;-81
2022/03/05 17:12:07;;;;;;;14.27;8.77;;;3.50;60.80;;;;;;12892608;23;20194;-80
2022/03/05 17:17:10;;;;;;;16.43;7.53;;;3.40;64.30;;;;;;12919245;23;20213;-80
2022/03/05 17:22:12;;;;;;;11.27;8.17;;;5.20;68.60;;;;;;12889849;23;20699;-80
2022/03/05 17:27:15;;;;;;;26.73;14.63;;;5.00;58.10;;;;;;12916167;23;20170;-80
2022/03/05 17:32:28;;;;;;;57.47;24.97;;;4.20;62.60;;;;;;12908702;23;20252;-81
2022/03/05 17:37:31;;;;;;;20.63;11.27;;;3.30;64.00;;;;;;12864060;23;20579;-81
2022/03/05 17:42:34;;;;;;;94.87;37.67;;;4.30;71.30;;;;;;12916431;23;20233;-80
2022/03/05 17:47:37;;;;;;;37.47;19.43;;;3.50;65.20;;;;;;12934717;23;20170;-80
2022/03/05 17:52:42;;;;;;;17.10;11.60;;;4.10;69.10;;;;;;12890741;23;20217;-81
2022/03/05 17:57:46;;;;;;;19.07;10.97;;;5.80;69.10;;;;;;12933838;23;20162;-81
2022/03/05 18:02:49;;;;;;;16.17;10.97;;;6.10;67.00;;;;;;12890351;23;20521;-80
2022/03/05 18:07:52;;;;;;;26.00;15.77;;;7.20;65.30;;;;;;12915838;23;20514;-81
2022/03/05 18:12:54;;;;;;;107.30;44.40;;;7.30;60.50;;;;;;12866744;23;20252;-81
2022/03/05 18:17:57;;;;;;;178.83;78.87;;;4.60;62.80;;;;;;12890744;23;20164;-80
2022/03/05 18:23:00;;;;;;;66.40;34.00;;;3.80;64.60;;;;;;12918282;23;20171;-81
2022/03/05 18:28:03;;;;;;;38.00;20.53;;;4.80;67.90;;;;;;12865449;23;20178;-85
2022/03/05 18:33:05;;;;;;;23.50;14.27;;;4.90;70.90;;;;;;12865384;23;20237;-81
2022/03/05 18:38:08;;;;;;;15.33;9.77;;;5.00;65.80;;;;;;12891129;23;20174;-81
2022/03/05 18:43:10;;;;;;;16.87;11.80;;;3.50;60.50;;;;;;12890790;23;20229;-80
2022/03/05 18:48:13;;;;;;;32.90;20.97;;;5.90;67.40;;;;;;12910723;23;20555;-80
2022/03/05 18:53:16;;;;;;;75.60;35.17;;;6.00;63.60;;;;;;12890568;23;20252;-81
2022/03/05 18:58:19;;;;;;;30.13;13.80;;;4.90;63.00;;;;;;12864840;23;20563;-80
2022/03/05 19:03:23;;;;;;;14.37;9.90;;;3.90;63.00;;;;;;12914671;23;20170;-80
2022/03/05 19:08:26;;;;;;;19.17;11.53;;;3.60;67.10;;;;;;12861878;23;20649;-81
2022/03/05 19:13:29;;;;;;;18.83;12.30;;;4.90;70.40;;;;;;12882331;23;20194;-80
2022/03/05 19:18:32;;;;;;;14.97;9.97;;;5.70;63.10;;;;;;12883658;23;20189;-80
2022/03/05 19:23:34;;;;;;;13.47;9.90;;;5.60;57.90;;;;;;12911417;23;20175;-81
2022/03/05 19:28:37;;;;;;;15.37;9.17;;;3.80;64.70;;;;;;12883088;23;20178;-81
2022/03/05 19:33:39;;;;;;;14.37;8.40;;;5.60;70.90;;;;;;12882192;23;20206;-81
2022/03/05 19:38:42;;;;;;;14.00;8.00;;;7.20;70.20;;;;;;12908040;23;20237;-81
2022/03/05 19:43:44;;;;;;;31.70;23.20;;;6.60;64.20;;;;;;12915298;23;20209;-80
2022/03/05 19:48:47;;;;;;;13.57;9.67;;;2.80;61.80;;;;;;12888890;23;20213;-80
2022/03/05 19:53:49;;;;;;;22.87;15.20;;;3.40;85.40;;;;;;12885019;23;20596;-81
2022/03/05 19:58:52;;;;;;;26.73;21.30;;;4.80;80.70;;;;;;12884604;23;20559;-81
2022/03/05 20:03:54;;;;;;;22.30;17.10;;;4.10;70.40;;;;;;12883713;23;20524;-81
2022/03/05 20:08:57;;;;;;;26.90;17.57;;;4.50;71.70;;;;;;12916748;22;20267;-81
2022/03/05 20:14:01;;;;;;;18.23;12.33;;;2.60;67.50;;;;;;12911569;23;20232;-81
2022/03/05 20:19:03;;;;;;;17.93;10.63;;;1.80;68.40;;;;;;12911155;23;20519;-80
2022/03/05 20:24:06;;;;;;;12.83;8.43;;;3.50;80.90;;;;;;12910669;23;20193;-80
2022/03/05 20:29:10;;;;;;;19.57;9.17;;;4.70;80.20;;;;;;12912471;23;20167;-80
2022/03/05 20:34:12;;;;;;;16.43;12.07;;;5.40;77.20;;;;;;12886911;23;20194;-81
2022/03/05 20:39:15;;;;;;;22.77;15.33;;;4.60;62.90;;;;;;12862786;23;20224;-80
2022/03/05 20:44:21;;;;;;;19.13;12.43;;;6.60;69.90;;;;;;12906314;23;20170;-81
2022/03/05 20:49:24;;;;;;;15.73;10.27;;;6.80;70.00;;;;;;12863473;23;20244;-80
2022/03/05 20:54:26;;;;;;;23.50;13.33;;;6.50;71.70;;;;;;12914094;23;20582;-81
2022/03/05 20:59:29;;;;;;;19.90;11.00;;;6.00;69.30;;;;;;12913728;22;20187;-80
2022/03/05 21:04:31;;;;;;;34.13;17.90;;;5.10;72.30;;;;;;12918158;23;20170;-81
2022/03/05 21:09:34;;;;;;;18.50;10.40;;;5.00;67.80;;;;;;12918699;23;20584;-81
2022/03/05 21:14:37;;;;;;;28.40;16.37;;;4.50;76.50;;;;;;12918422;23;20186;-81
2022/03/05 21:19:41;;;;;;;20.73;12.70;;;4.40;75.60;;;;;;12919334;23;20494;-83
2022/03/05 21:24:43;;;;;;;19.13;10.33;;;6.40;71.50;;;;;;12891319;23;20182;-82
2022/03/05 21:29:46;;;;;;;13.10;8.77;;;5.90;70.90;;;;;;12893053;23;20498;-81
2022/03/05 21:34:48;;;;;;;36.17;19.03;;;5.60;75.80;;;;;;12919022;23;20521;-81
2022/03/05 21:39:51;;;;;;;22.73;13.73;;;5.00;66.00;;;;;;12891477;23;20240;-81
2022/03/05 21:44:53;;;;;;;17.50;10.50;;;3.70;69.60;;;;;;12890928;23;20170;-80
2022/03/05 21:49:56;;;;;;;23.10;12.93;;;5.00;77.80;;;;;;12917666;23;20491;-81
2022/03/05 21:54:59;;;;;;;15.67;9.47;;;3.40;65.00;;;;;;12861676;23;20194;-83
2022/03/05 22:00:04;;;;;;;17.80;9.63;;;5.50;77.90;;;;;;12916335;23;20171;-83
2022/03/05 22:05:14;;;;;;;23.97;13.13;;;6.40;74.80;;;;;;12937113;23;20562;-81
2022/03/05 22:10:17;;;;;;;14.90;8.47;;;4.60;66.80;;;;;;12888164;23;20680;-82
2022/03/05 22:15:19;;;;;;;23.03;13.17;;;5.60;79.40;;;;;;12887573;23;20198;-82
2022/03/05 22:20:22;;;;;;;18.10;10.87;;;6.20;68.10;;;;;;12888331;23;20236;-82
2022/03/05 22:25:25;;;;;;;15.47;9.23;;;5.10;74.90;;;;;;12915352;23;20217;-81
2022/03/05 22:30:28;;;;;;;19.97;11.43;;;5.80;77.30;;;;;;12888166;23;20228;-81
2022/03/05 22:35:31;;;;;;;11.13;8.90;;;6.00;73.00;;;;;;12888869;23;20264;-82
2022/03/05 22:40:34;;;;;;;17.93;10.97;;;6.00;76.00;;;;;;12888795;23;20171;-81
2022/03/05 22:45:36;;;;;;;18.97;11.30;;;4.30;72.10;;;;;;12906680;23;20170;-82
2022/03/05 22:50:39;;;;;;;16.53;9.87;;;4.80;74.80;;;;;;12888217;23;20501;-81
2022/03/05 22:55:43;;;;;;;28.07;15.33;;;5.40;79.50;;;;;;12887554;23;20616;-81
2022/03/05 23:00:45;;;;;;;24.23;14.60;;;5.30;73.50;;;;;;12862246;23;20501;-81
2022/03/05 23:05:48;;;;;;;15.47;8.47;;;5.90;69.30;;;;;;12886374;23;20491;-81
2022/03/05 23:10:50;;;;;;;33.97;17.07;;;6.40;75.80;;;;;;12914284;23;20264;-81
2022/03/05 23:15:53;;;;;;;26.10;12.90;;;5.90;69.50;;;;;;12887714;23;20527;-81
2022/03/05 23:20:56;;;;;;;21.23;12.37;;;5.40;75.80;;;;;;12915162;23;20548;-82
2022/03/05 23:25:59;;;;;;;20.73;10.97;;;6.30;75.90;;;;;;12886211;23;20178;-81
2022/03/05 23:31:02;;;;;;;25.07;13.30;;;6.80;74.70;;;;;;12930137;23;20193;-81
2022/03/05 23:36:05;;;;;;;34.47;19.93;;;6.50;74.10;;;;;;12886228;23;20248;-81
2022/03/05 23:41:08;;;;;;;43.17;21.90;;;5.10;68.90;;;;;;12887849;23;20236;-81
2022/03/05 23:46:11;;;;;;;25.73;11.30;;;2.90;68.10;;;;;;12907766;23;20171;-81
2022/03/05 23:51:14;;;;;;;16.50;10.47;;;4.50;84.50;;;;;;12916310;23;20170;-81
2022/03/05 23:56:18;;;;;;;31.23;15.40;;;6.70;75.40;;;;;;12916284;23;20673;-81
